createdAt,value
2022-07-27T00:03:15.895Z,2.80
2022-07-27T00:08:19.501Z,2.83
2022-07-27T00:13:23.053Z,3.00
2022-07-27T00:18:26.817Z,2.92
2022-07-27T00:23:30.529Z,2.67
2022-07-27T00:28:34.257Z,2.50
2022-07-27T00:33:40.652Z,2.67
2022-07-27T00:38:44.004Z,3.10
2022-07-27T00:43:58.896Z,3.65
2022-07-27T00:49:02.530Z,3.25
2022-07-27T00:54:06.570Z,2.55
2022-07-27T00:59:12.186Z,3.25
2022-07-27T01:04:16.175Z,2.88
2022-07-27T01:09:20.144Z,2.92
2022-07-27T01:14:23.913Z,3.05
2022-07-27T01:19:32.774Z,3.00
2022-07-27T01:24:36.591Z,2.53
2022-07-27T01:29:40.907Z,3.35
2022-07-27T01:34:44.821Z,3.20
2022-07-27T01:39:48.213Z,3.10
2022-07-27T01:44:51.909Z,3.40
2022-07-27T01:49:55.555Z,2.97
2022-07-27T01:54:59.119Z,3.10
2022-07-27T02:00:09.811Z,2.92
2022-07-27T02:05:17.133Z,3.35
2022-07-27T02:10:20.657Z,3.22
2022-07-27T02:15:27.166Z,3.20
2022-07-27T02:20:31.427Z,3.35
2022-07-27T02:25:35.282Z,3.13
2022-07-27T02:30:38.761Z,3.42
2022-07-27T02:35:44.966Z,3.08
2022-07-27T02:40:53.496Z,3.70
2022-07-27T02:45:56.995Z,3.75
2022-07-27T02:51:01.695Z,4.20
2022-07-27T02:56:05.477Z,3.72
2022-07-27T03:01:09.097Z,3.83
2022-07-27T03:06:12.457Z,4.13
2022-07-27T03:11:16.202Z,3.70
2022-07-27T03:16:20.192Z,4.55
2022-07-27T03:21:24.369Z,3.70
2022-07-27T03:26:28.175Z,3.53
2022-07-27T03:31:31.945Z,4.97
2022-07-27T03:36:35.531Z,3.30
2022-07-27T03:41:39.648Z,3.33
2022-07-27T03:46:43.051Z,4.00
2022-07-27T03:51:46.817Z,3.58
2022-07-27T03:56:50.433Z,4.28
2022-07-27T04:01:54.626Z,4.75
2022-07-27T04:06:58.623Z,5.45
2022-07-27T04:12:02.169Z,6.18
2022-07-27T04:17:06.620Z,6.05
2022-07-27T04:22:10.876Z,6.88
2022-07-27T04:27:14.391Z,7.63
2022-07-27T04:32:17.805Z,9.50
2022-07-27T04:37:21.347Z,5.47
2022-07-27T04:42:25.450Z,4.97
2022-07-27T04:47:28.848Z,4.68
2022-07-27T04:52:32.478Z,6.60
2022-07-27T04:57:36.467Z,4.90
2022-07-27T05:02:43.087Z,4.50
2022-07-27T05:07:46.620Z,4.32
2022-07-27T05:12:50.325Z,3.60
2022-07-27T05:17:54.248Z,4.00
2022-07-27T05:22:57.930Z,3.28
2022-07-27T05:28:01.751Z,3.13
2022-07-27T05:33:05.606Z,2.78
2022-07-27T05:38:09.265Z,2.75
2022-07-27T05:43:12.774Z,2.63
2022-07-27T05:48:16.278Z,2.67
2022-07-27T05:53:20.243Z,2.42
2022-07-27T05:58:24.836Z,2.65
2022-07-27T06:03:28.399Z,3.15
2022-07-27T06:08:33.001Z,2.75
2022-07-27T06:13:36.663Z,3.28
2022-07-27T06:18:40.345Z,3.38
2022-07-27T06:23:44.026Z,3.47
2022-07-27T06:28:47.952Z,3.08
2022-07-27T06:33:52.223Z,2.58
2022-07-27T06:38:55.762Z,2.70
2022-07-27T06:43:59.259Z,2.90
2022-07-27T06:49:03.151Z,3.00
2022-07-27T06:54:06.821Z,3.63
2022-07-27T06:59:10.563Z,3.08
2022-07-27T07:04:14.355Z,2.97
2022-07-27T07:09:18.397Z,3.08
2022-07-27T07:14:22.402Z,3.67
2022-07-27T07:19:26.165Z,6.15
2022-07-27T07:24:29.710Z,3.60
2022-07-27T07:29:34.089Z,4.18
2022-07-27T07:34:37.632Z,2.65
2022-07-27T07:39:41.328Z,2.60
2022-07-27T07:44:44.936Z,2.40
2022-07-27T07:49:48.520Z,2.78
2022-07-27T07:54:52.035Z,1.90
2022-07-27T07:59:55.364Z,2.38
2022-07-27T08:05:00.277Z,1.88
2022-07-27T08:10:05.328Z,1.90
2022-07-27T08:15:09.466Z,2.05
2022-07-27T08:20:15.635Z,2.95
2022-07-27T08:25:19.246Z,2.22
2022-07-27T08:30:22.924Z,2.47
2022-07-27T08:35:29.391Z,1.80
2022-07-27T08:40:40.637Z,1.95
2022-07-27T08:45:52.961Z,2.00
2022-07-27T08:50:56.587Z,2.27
2022-07-27T08:56:00.959Z,1.88
2022-07-27T09:01:04.555Z,1.85
2022-07-27T09:06:08.127Z,2.33
2022-07-27T09:11:15.715Z,2.50
2022-07-27T09:17:03.046Z,1.95
2022-07-27T09:21:53.302Z,2.03
2022-07-27T09:27:05.061Z,1.63
2022-07-27T09:32:16.160Z,1.88
2022-07-27T09:37:28.050Z,2.03
2022-07-27T09:43:05.550Z,2.03
2022-07-27T09:48:21.219Z,1.90
2022-07-27T09:53:42.172Z,1.77
2022-07-27T09:58:50.346Z,2.33
2022-07-27T10:03:57.405Z,1.80
2022-07-27T10:09:01.156Z,1.83
2022-07-27T10:14:04.800Z,1.98
2022-07-27T10:19:18.310Z,1.80
2022-07-27T10:24:30.479Z,2.20
2022-07-27T10:29:34.244Z,1.98
2022-07-27T10:34:50.302Z,1.83
2022-07-27T10:40:08.066Z,1.95
2022-07-27T10:45:16.585Z,2.20
2022-07-27T10:50:21.627Z,2.20
2022-07-27T10:55:30.896Z,1.80
2022-07-27T11:00:54.641Z,1.55
2022-07-27T11:06:22.013Z,1.65
2022-07-27T11:11:26.977Z,1.70
2022-07-27T11:16:31.458Z,1.85
2022-07-27T11:21:37.744Z,1.27
2022-07-27T11:26:48.130Z,2.03
2022-07-27T11:31:57.230Z,1.70
2022-07-27T11:37:03.507Z,1.60
2022-07-27T11:42:11.484Z,1.65
2022-07-27T11:47:24.034Z,1.48
2022-07-27T11:52:31.307Z,1.42
2022-07-27T11:57:35.531Z,1.73
2022-07-27T12:02:52.432Z,1.40
2022-07-27T12:07:56.530Z,1.77
2022-07-27T12:13:00.069Z,1.70
2022-07-27T12:18:03.782Z,2.45
2022-07-27T12:23:09.259Z,1.52
2022-07-27T12:28:14.879Z,1.30
2022-07-27T12:33:30.459Z,1.70
2022-07-27T12:38:52.070Z,1.35
2022-07-27T12:44:09.964Z,1.27
2022-07-27T12:49:17.169Z,1.50
2022-07-27T12:54:21.082Z,1.80
2022-07-27T12:59:24.474Z,1.45
2022-07-27T13:04:29.029Z,1.25
2022-07-27T13:10:02.261Z,1.42
2022-07-27T13:14:57.156Z,1.42
2022-07-27T13:20:00.741Z,1.38
2022-07-27T13:25:15.677Z,1.20
2022-07-27T13:30:20.589Z,1.50
2022-07-27T13:35:24.305Z,1.25
2022-07-27T13:40:27.625Z,1.35
2022-07-27T13:45:31.223Z,1.90
2022-07-27T13:50:46.836Z,1.02
2022-07-27T13:55:50.391Z,1.42
2022-07-27T14:00:53.999Z,1.65
2022-07-27T14:05:57.394Z,1.70
2022-07-27T14:11:03.656Z,1.65
2022-07-27T14:16:07.661Z,1.30
2022-07-27T14:21:11.545Z,1.30
2022-07-27T14:26:15.280Z,2.00
2022-07-27T14:31:18.746Z,1.55
2022-07-27T14:36:22.234Z,1.55
2022-07-27T14:41:25.406Z,1.50
2022-07-27T14:46:31.429Z,1.70
2022-07-27T14:51:37.982Z,1.50
2022-07-27T14:56:41.768Z,1.50
2022-07-27T15:01:45.447Z,1.65
2022-07-27T15:06:52.179Z,1.20
2022-07-27T15:12:00.438Z,1.58
2022-07-27T15:17:04.144Z,1.35
2022-07-27T15:22:07.553Z,1.30
2022-07-27T15:27:11.861Z,1.30
2022-07-27T15:32:15.358Z,1.30
2022-07-27T15:37:20.271Z,1.50
2022-07-27T15:42:23.772Z,1.60
2022-07-27T15:47:27.235Z,1.55
2022-07-27T15:52:31.141Z,1.45
2022-07-27T15:57:34.610Z,1.30
2022-07-27T16:02:38.603Z,1.58
2022-07-27T16:07:43.001Z,1.65
2022-07-27T16:12:46.428Z,1.50
2022-07-27T16:17:49.981Z,1.60
2022-07-27T16:22:55.738Z,1.40
2022-07-27T16:28:00.481Z,1.40
2022-07-27T16:33:08.182Z,1.98
2022-07-27T16:38:17.015Z,1.80
2022-07-27T16:43:20.839Z,2.65
2022-07-27T16:48:24.960Z,1.90
2022-07-27T16:53:28.961Z,2.35
2022-07-27T16:58:32.560Z,2.10
2022-07-27T17:03:36.826Z,2.35
2022-07-27T17:08:41.320Z,1.95
2022-07-27T17:13:48.927Z,2.10
2022-07-27T17:18:52.652Z,2.35
2022-07-27T17:23:56.117Z,2.10
2022-07-27T17:28:59.758Z,1.92
2022-07-27T17:34:03.185Z,2.50
2022-07-27T17:39:07.016Z,2.55
2022-07-27T17:44:10.837Z,2.95
2022-07-27T17:49:14.897Z,2.47
2022-07-27T17:54:18.750Z,2.42
2022-07-27T17:59:38.518Z,2.63
2022-07-27T18:04:42.685Z,2.50
2022-07-27T18:09:52.589Z,2.70
2022-07-27T18:14:57.021Z,2.50
2022-07-27T18:20:00.654Z,2.85
2022-07-27T18:25:05.940Z,2.80
2022-07-27T18:30:09.821Z,3.00
2022-07-27T18:35:14.167Z,2.75
2022-07-27T18:40:17.744Z,3.10
2022-07-27T18:45:21.370Z,2.72
2022-07-27T18:50:28.239Z,2.85
2022-07-27T18:55:32.048Z,3.45
2022-07-27T19:00:35.648Z,3.10
2022-07-27T19:05:41.359Z,2.97
2022-07-27T19:10:46.188Z,3.60
2022-07-27T19:15:50.205Z,3.78
2022-07-27T19:20:53.452Z,3.70
2022-07-27T19:25:56.707Z,3.88
2022-07-27T19:31:00.115Z,4.00
2022-07-27T19:36:03.820Z,4.40
2022-07-27T19:41:07.716Z,4.25
2022-07-27T19:46:11.234Z,3.70
2022-07-27T19:51:14.942Z,4.07
2022-07-27T19:56:18.471Z,4.93
2022-07-27T20:01:22.151Z,4.72
2022-07-27T20:06:26.591Z,4.68
2022-07-27T20:11:30.528Z,5.00
2022-07-27T20:16:34.480Z,4.97
2022-07-27T20:21:39.847Z,5.18
2022-07-27T20:26:49.047Z,5.15
2022-07-27T20:31:55.405Z,5.18
2022-07-27T20:36:59.003Z,5.78
2022-07-27T20:42:02.428Z,5.00
2022-07-27T20:47:06.930Z,5.45
2022-07-27T20:52:11.108Z,5.47
2022-07-27T20:57:14.653Z,5.70
2022-07-27T21:02:18.201Z,5.25
2022-07-27T21:07:22.098Z,5.53
2022-07-27T21:12:28.011Z,5.60
2022-07-27T21:17:32.218Z,5.35
2022-07-27T21:22:36.305Z,5.22
2022-07-27T21:27:40.044Z,5.97
2022-07-27T21:32:45.914Z,5.25
2022-07-27T21:37:49.646Z,5.07
2022-07-27T21:42:53.289Z,5.43
2022-07-27T21:47:56.627Z,5.72
2022-07-27T21:53:00.189Z,6.30
2022-07-27T21:58:03.616Z,6.07
2022-07-27T22:03:07.950Z,5.55
2022-07-27T22:08:11.510Z,5.10
2022-07-27T22:13:14.918Z,4.78
2022-07-27T22:18:18.494Z,5.60
2022-07-27T22:23:22.176Z,5.80
2022-07-27T22:28:26.495Z,5.63
2022-07-27T22:33:30.086Z,5.53
2022-07-27T22:38:33.657Z,5.22
2022-07-27T22:43:36.963Z,5.40
2022-07-27T22:48:40.397Z,5.43
2022-07-27T22:53:44.128Z,5.40
2022-07-27T22:58:47.549Z,5.47
2022-07-27T23:03:51.649Z,4.82
2022-07-27T23:08:57.680Z,6.03
2022-07-27T23:14:00.990Z,4.95
2022-07-27T23:19:04.572Z,5.40
2022-07-27T23:24:09.946Z,5.00
2022-07-27T23:29:14.846Z,5.38
2022-07-27T23:34:18.327Z,5.53
2022-07-27T23:39:21.537Z,5.00
2022-07-27T23:44:24.973Z,5.68
2022-07-27T23:49:28.899Z,4.68
2022-07-27T23:54:32.447Z,5.53
2022-07-27T23:59:36.376Z,4.68
